Airfield :







YOU CAN JOIN US ON...

 
LOGIN :

Register | Disclaimer

   EN    FR    IT 

 









Legend :    VFR   Marginal VFR   IFR   Intensive IFR   Very Intensive IFR
Visi :
Ceiling :
>= 8 km
>= 3000ft
5 to 8 km
1000 to 3000 ft
1500m to 5 km
500 to 1000 ft
800 to 1500m
200 to 500 ft
< 800m
< 200 ft
Symbols :   Thunderstorms  Fog  Heavy snow  Heavy precipitations  Wind > 20 kt







- Airport Elevation : 328 ft


KGFL - Floyd Bennett Memorial

CURRENT METAR :
  • 191201Z AUTO 17004KT 10SM SCT019 BKN060 BKN075 12/09 A3000 RMK AO2 T01170094

EXPIRED METARs :
  • 191146Z AUTO 00000KT 10SM VCTS -RA FEW050 SCT075 BKN095 11/09 A3001 RMK AO2 LTG DSNT S P0001 T01110089
  • 191053Z AUTO 00000KT 7SM -RA SCT039 OVC100 11/08 A3000 RMK AO2 RAB46 SLP160 P0001 T01060078
  • 190953Z AUTO 00000KT 10SM FEW049 SCT120 09/07 A3000 RMK AO2 SLP159 T00890072

TAF KGFL
Valid from the 19 at 12:00 until the 20 at 12:00 UTC


191126Z 1912/2012 VRB03KT P6SM FEW050 BKN100 WS020/23035KT
TEMPO 1912/1914 2SM SHRA BR BKN025 OVC050
FM191400 19007KT P6SM VCSH BKN070
FM192100 19010KT P6SM BKN040
PROB30 1921/2003 4SM -TSRA OVC025CB
FM200600 19009KT P6SM BKN003
PROB30 2006/2011 4SM -SHRA OVC003
FM201100 20008KT P6SM -SHRA SCT040 BKN080
KZBW FIR / North America



MET'MAP, your aeronautical weather chart ! - Copyright ORBIFLY December 2007 - Disclaimer

ORBIFLY MET'MAP TEAM :

Programming & Development : Alexandra Zaïnal
Concept & Development : Baudouin d'Aumeries
Co-Development & Prog : Marc-Olivier Méhu
Technical & hardware support : Manuel Goepfert

Contact : metmap@orbifly.com




SOURCES & CREDITS :

   NOAA